Main page
METAR-TAF:

METAR-TAF

Airports :

RAF Lossiemouth

Lossiemouth, Scotland

latitude: 57-43N, longitude: 003-19W, elevation: 13 m

Current weather observation

The report was made 45 minutes ago, at 03:50 UTC
Wind 8 kt from the South/Southwest
Temperature 11°C
Humidity 82%
Pressure 1001 hPa
Visibility 10 km or more
no clouds below 1500 m and no cumulonimbus

METAR: EGQS 160350Z 21008KT CAVOK 11/08 Q1001 BLU

Time: 05:35 (04:35 UTC)

Forecast

The report was made 2 hours and 56 minutes ago, at 01:39 UTC
Forecast valid from 16 at 03 UTC to 16 at 21 UTC
Wind 10 kt from the Southwest
Visibility 10 km or more
Broken clouds at a height of 4000 ft
Probability 30% :
Temporary
from 16 at 10 UTC to 16 at 18 UTC
Wind 15 kt from the West/Southwest with gusts up to 25 kt
Scattered clouds at a height of 3000 ft, Cumulonimbus.
rain showers

TAF: EGQS 160139Z 1603/1621 22010KT 9999 BKN040 PROB30 TEMPO 1610/1618 25015G25KT SHRA SCT030CB

Weather observations and forecasts of more than 4000 airports (METAR and TAF reports).

The available stations are represented by yellow and red dots on the map.

Hover mouse over dot to see the name of the station.

Then click to see weather observations and forecasts.

To change the map : click on the green buttons with a black cross to zoom in, on the green button with a dash to zoom out, or on the green arrows for adjacent maps.


METAR-TAF: